createdAt,value
2019-04-30T00:05:58.007Z,32.67
2019-04-30T00:16:01.585Z,26.67
2019-04-30T00:26:06.007Z,24.67
2019-04-30T00:36:07.728Z,24.65
2019-04-30T00:46:09.699Z,30.50
2019-04-30T00:56:11.689Z,30.50
2019-04-30T01:06:17.267Z,31.87
2019-04-30T01:16:19.463Z,39.88
2019-04-30T01:26:22.850Z,37.05
2019-04-30T01:36:24.901Z,34.83
2019-04-30T01:46:26.780Z,39.43
2019-04-30T01:56:29.162Z,40.12
2019-04-30T02:06:32.932Z,33.37
2019-04-30T02:16:34.892Z,45.83
2019-04-30T02:26:38.379Z,37.33
2019-04-30T02:36:40.632Z,35.23
2019-04-30T02:46:44.388Z,38.53
2019-04-30T02:56:46.368Z,36.45
2019-04-30T03:06:50.252Z,41.13
2019-04-30T03:16:53.321Z,35.95
2019-04-30T03:26:55.489Z,33.05
2019-04-30T03:37:01.717Z,40.17
2019-04-30T03:47:01.315Z,36.03
2019-04-30T03:57:03.263Z,42.00
2019-04-30T04:07:07.028Z,37.80
2019-04-30T04:17:09.848Z,42.58
2019-04-30T04:27:11.927Z,36.65
2019-04-30T04:37:13.960Z,39.93
2019-04-30T04:47:16.347Z,36.60
2019-04-30T04:57:22.402Z,34.48
2019-04-30T05:07:23.116Z,36.48
2019-04-30T05:17:25.059Z,37.53
2019-04-30T05:27:27.062Z,39.87
2019-04-30T05:37:29.024Z,37.53
2019-04-30T05:47:30.987Z,41.77
2019-04-30T05:57:32.900Z,57.67
2019-04-30T06:07:34.888Z,41.60
2019-04-30T06:17:39.141Z,48.37
2019-04-30T06:27:41.372Z,42.53
2019-04-30T06:37:43.291Z,37.37
2019-04-30T06:47:45.380Z,32.33
2019-04-30T06:57:49.518Z,31.00
2019-04-30T07:07:53.328Z,31.82
2019-04-30T07:17:55.190Z,28.12
2019-04-30T07:27:59.336Z,27.23
2019-04-30T07:38:04.926Z,29.77
2019-04-30T07:48:05.824Z,28.75
2019-04-30T07:58:09.020Z,31.93
2019-04-30T08:08:21.134Z,29.52
2019-04-30T08:18:14.974Z,39.08
2019-04-30T08:28:18.675Z,40.03
2019-04-30T08:38:20.828Z,34.40
2019-04-30T08:48:22.835Z,38.07
2019-04-30T08:58:24.895Z,37.83
2019-04-30T09:08:26.877Z,36.07
2019-04-30T09:18:29.277Z,36.73
2019-04-30T09:28:31.428Z,41.85
2019-04-30T09:38:33.392Z,39.63
2019-04-30T09:48:35.399Z,35.00
2019-04-30T09:58:39.230Z,32.13
2019-04-30T10:08:48.474Z,35.88
2019-04-30T10:18:44.937Z,32.03
2019-04-30T10:28:49.534Z,35.03
2019-04-30T10:38:52.611Z,26.75
2019-04-30T10:48:54.780Z,33.78
2019-04-30T10:58:59.270Z,35.50
2019-04-30T11:09:01.819Z,29.87
2019-04-30T11:19:05.190Z,32.50
2019-04-30T11:29:07.708Z,32.08
2019-04-30T11:39:09.820Z,28.90
2019-04-30T11:49:11.842Z,29.00
2019-04-30T11:59:15.078Z,26.80
2019-04-30T12:09:20.134Z,25.08
2019-04-30T12:19:22.246Z,47.75
2019-04-30T12:29:24.239Z,28.27
2019-04-30T12:39:26.223Z,29.32
2019-04-30T12:49:28.810Z,31.35
2019-04-30T12:59:33.321Z,28.70
2019-04-30T13:09:39.489Z,22.32
2019-04-30T13:19:40.956Z,25.27
2019-04-30T13:29:42.947Z,23.80
2019-04-30T13:39:52.119Z,20.10
2019-04-30T13:49:49.510Z,18.52
2019-04-30T13:59:51.569Z,18.12
2019-04-30T14:09:53.560Z,21.27
2019-04-30T14:19:55.543Z,22.55
2019-04-30T14:29:59.320Z,17.98
2019-04-30T14:40:02.038Z,19.48
2019-04-30T14:50:05.430Z,28.62
2019-04-30T15:00:08.784Z,17.35
2019-04-30T15:10:11.231Z,17.62
2019-04-30T15:20:13.911Z,24.52
2019-04-30T15:30:21.609Z,25.43
2019-04-30T15:40:20.535Z,27.80
2019-04-30T15:50:22.533Z,26.42
2019-04-30T16:10:25.876Z,32.00
2019-04-30T16:20:29.940Z,27.70
2019-04-30T16:30:31.795Z,35.30
2019-04-30T16:40:33.887Z,35.90
2019-04-30T16:50:35.828Z,32.05
2019-04-30T17:00:39.183Z,37.10
2019-04-30T17:10:41.313Z,41.68
2019-04-30T17:20:43.423Z,46.55
2019-04-30T17:30:45.803Z,35.73
2019-04-30T17:40:49.631Z,35.03
2019-04-30T17:50:51.666Z,47.70
2019-04-30T18:00:53.645Z,35.07
2019-04-30T18:10:55.696Z,34.20
2019-04-30T18:20:59.353Z,51.80
2019-04-30T18:31:01.470Z,35.70
2019-04-30T18:41:03.492Z,42.83
2019-04-30T18:51:23.569Z,33.03
2019-04-30T19:01:09.340Z,24.55
2019-04-30T19:11:12.613Z,31.33
2019-04-30T19:21:14.887Z,36.55
2019-04-30T19:31:17.162Z,30.97
2019-04-30T19:41:19.287Z,37.97
2019-04-30T19:51:21.307Z,29.53
2019-04-30T20:01:23.343Z,31.87
2019-04-30T20:11:25.299Z,31.43
2019-04-30T20:21:31.881Z,32.73
2019-04-30T20:31:31.383Z,34.05
2019-04-30T20:41:33.406Z,30.93
2019-04-30T20:51:35.460Z,32.40
2019-04-30T21:01:39.350Z,32.73
2019-04-30T21:11:41.353Z,31.17
2019-04-30T21:21:43.321Z,28.57
2019-04-30T21:31:45.333Z,29.93
2019-04-30T21:41:49.443Z,31.67
2019-04-30T21:51:51.622Z,37.78
2019-04-30T22:01:53.796Z,35.70
2019-04-30T22:11:55.787Z,34.50
2019-04-30T22:21:59.467Z,35.23
2019-04-30T22:32:01.730Z,40.45
2019-04-30T22:42:29.742Z,35.73
2019-04-30T22:52:31.931Z,38.15
2019-04-30T23:02:33.987Z,37.03
2019-04-30T23:12:37.096Z,40.57
2019-04-30T23:22:39.082Z,37.30
2019-04-30T23:32:41.126Z,44.03
2019-04-30T23:42:43.143Z,38.03
2019-04-30T23:52:45.247Z,37.37
